Time;durP1;ratioP1;P1;durP2;ratioP2;P2;SDS_P1;SDS_P2;PMS_P1;PMS_P2;Temp;Humidity;BMP_temperature;BMP_pressure;BME280_temperature;BME280_humidity;BME280_pressure;Samples;Min_cycle;Max_cycle;Signal;HPM_P1;HPM_P2
2024/03/25 00:00:36;;;;;;;2.57;1.20;;;22.80;59.40;;;;;;5057450;28;20305;-95
2024/03/25 00:03:03;;;;;;;3.10;1.40;;;22.80;59.50;;;;;;5057761;28;20540;-91
2024/03/25 00:05:31;;;;;;;2.80;1.20;;;22.80;59.50;;;;;;5057800;28;20718;-94
2024/03/25 00:07:58;;;;;;;1.80;1.20;;;22.80;59.50;;;;;;5057369;28;20467;-90
2024/03/25 00:10:24;;;;;;;3.90;1.40;;;22.80;59.60;;;;;;5057958;28;20803;-90
2024/03/25 00:12:54;;;;;;;4.20;1.60;;;22.80;59.60;;;;;;5057455;28;20488;-94
2024/03/25 00:15:20;;;;;;;3.33;1.37;;;22.70;59.50;;;;;;5057130;28;20529;-90
2024/03/25 00:17:48;;;;;;;1.73;1.20;;;22.70;59.50;;;;;;5057583;28;20528;-90
2024/03/25 00:20:15;;;;;;;2.97;1.40;;;22.80;59.60;;;;;;5056961;28;20222;-94
2024/03/25 00:22:42;;;;;;;3.10;1.27;;;22.70;59.50;;;;;;5057117;28;20548;-90
2024/03/25 00:25:08;;;;;;;2.53;1.37;;;22.80;59.60;;;;;;5056678;28;20982;-90
2024/03/25 00:27:35;;;;;;;2.23;1.37;;;22.70;59.60;;;;;;5057018;28;20457;-89
2024/03/25 00:30:01;;;;;;;2.67;1.40;;;22.60;59.50;;;;;;5057711;28;20437;-90
2024/03/25 00:32:28;;;;;;;2.70;1.40;;;22.70;59.60;;;;;;5056531;28;20532;-94
2024/03/25 00:34:55;;;;;;;3.60;1.37;;;22.60;59.60;;;;;;5056685;28;20520;-90
2024/03/25 00:37:22;;;;;;;3.27;1.43;;;22.60;59.60;;;;;;5056335;28;20445;-90
2024/03/25 00:39:48;;;;;;;3.43;1.40;;;22.60;59.60;;;;;;5056645;28;20562;-90
2024/03/25 00:42:15;;;;;;;2.10;1.27;;;22.60;59.60;;;;;;5056729;28;20470;-90
2024/03/25 00:44:40;;;;;;;2.20;1.10;;;22.60;59.60;;;;;;5056812;28;20254;-89
2024/03/25 00:47:07;;;;;;;3.27;1.30;;;22.60;59.70;;;;;;5056585;28;20536;-91
2024/03/25 00:49:33;;;;;;;2.17;1.30;;;22.60;60.40;;;;;;5057246;28;20553;-90
2024/03/25 00:52:03;;;;;;;4.10;1.70;;;22.60;59.70;;;;;;5056060;28;20445;-94
2024/03/25 00:54:29;;;;;;;2.20;1.20;;;22.50;59.60;;;;;;5055182;28;20503;-90
2024/03/25 00:56:55;;;;;;;3.20;1.40;;;22.50;59.60;;;;;;5056279;28;20446;-90
2024/03/25 00:59:21;;;;;;;1.80;1.10;;;22.50;59.60;;;;;;5056434;28;20301;-90
2024/03/25 01:01:48;;;;;;;4.13;1.63;;;22.50;59.60;;;;;;5055839;28;20438;-90
2024/03/25 01:04:14;;;;;;;2.23;0.90;;;22.50;59.60;;;;;;5056103;28;20455;-90
2024/03/25 01:06:41;;;;;;;2.43;1.17;;;22.50;60.00;;;;;;5056094;28;20526;-94
2024/03/25 01:09:10;;;;;;;2.30;1.50;;;22.50;59.60;;;;;;5056391;28;20186;-90
2024/03/25 01:11:36;;;;;;;4.43;1.20;;;22.50;59.60;;;;;;5056336;28;20477;-91
2024/03/25 01:14:02;;;;;;;3.27;1.27;;;22.50;59.60;;;;;;5056880;28;20437;-89
2024/03/25 01:16:29;;;;;;;3.00;1.30;;;22.50;60.30;;;;;;5055928;28;20467;-89
2024/03/25 01:18:55;;;;;;;2.90;1.40;;;22.50;59.70;;;;;;5055961;28;20305;-89
2024/03/25 01:21:22;;;;;;;2.30;1.13;;;22.50;59.70;;;;;;5056318;28;20548;-89
2024/03/25 01:23:52;;;;;;;2.57;1.40;;;22.50;59.60;;;;;;5055578;28;20309;-90
2024/03/25 01:26:20;;;;;;;2.87;1.30;;;22.50;59.60;;;;;;5055691;28;20430;-91
2024/03/25 01:28:46;;;;;;;3.33;1.40;;;22.50;59.60;;;;;;5055936;28;20532;-90
2024/03/25 01:31:13;;;;;;;3.03;1.30;;;22.60;59.60;;;;;;5055861;28;20997;-90
2024/03/25 01:33:39;;;;;;;3.00;1.47;;;22.50;59.50;;;;;;5055641;28;20282;-92
2024/03/25 01:36:07;;;;;;;2.97;1.43;;;22.60;59.60;;;;;;5055878;28;20944;-90
2024/03/25 01:38:33;;;;;;;2.87;1.43;;;22.60;59.60;;;;;;5055669;28;20273;-91
2024/03/25 01:41:09;;;;;;;6.17;1.70;;;22.60;59.50;;;;;;5055603;28;20484;-90
2024/03/25 01:43:36;;;;;;;2.70;1.20;;;22.60;59.40;;;;;;5055785;28;20516;-89
2024/03/25 01:46:04;;;;;;;2.00;1.40;;;22.60;59.50;;;;;;5055462;28;20453;-90
2024/03/25 01:48:30;;;;;;;3.30;1.50;;;22.70;59.40;;;;;;5055360;28;20469;-90
2024/03/25 01:50:58;;;;;;;2.23;1.40;;;22.60;59.30;;;;;;5055458;28;20507;-89
2024/03/25 01:53:25;;;;;;;3.53;1.57;;;22.70;59.40;;;;;;5077289;28;20234;-88
2024/03/25 01:55:56;;;;;;;2.63;1.57;;;22.70;59.30;;;;;;5079476;28;20508;-88
2024/03/25 01:58:22;;;;;;;2.30;1.20;;;22.70;59.90;;;;;;5060455;28;20889;-88
2024/03/25 02:00:51;;;;;;;2.60;1.33;;;22.70;59.30;;;;;;5055367;28;20492;-90
2024/03/25 02:03:17;;;;;;;2.53;1.50;;;22.70;59.20;;;;;;5055061;28;20442;-89
2024/03/25 02:05:44;;;;;;;2.10;1.20;;;22.80;59.20;;;;;;5054944;28;20532;-89
2024/03/25 02:08:10;;;;;;;2.80;1.50;;;22.80;59.20;;;;;;5054885;28;20209;-92
2024/03/25 02:10:39;;;;;;;2.90;1.37;;;22.80;59.20;;;;;;5054925;28;20932;-93
2024/03/25 02:13:05;;;;;;;2.37;1.60;;;22.80;59.10;;;;;;5054418;28;20560;-89
2024/03/25 02:15:32;;;;;;;2.47;1.27;;;22.80;59.10;;;;;;5055305;28;20766;-90
2024/03/25 02:17:59;;;;;;;3.87;1.50;;;22.80;59.10;;;;;;5054781;28;20466;-89
2024/03/25 02:20:26;;;;;;;2.03;1.23;;;22.80;59.10;;;;;;5054206;28;20488;-90
2024/03/25 02:22:52;;;;;;;3.40;1.50;;;22.80;59.10;;;;;;5055254;28;20496;-89
2024/03/25 02:25:18;;;;;;;2.47;1.43;;;22.90;59.10;;;;;;5054752;28;20465;-93
2024/03/25 02:27:46;;;;;;;2.10;1.30;;;22.80;59.00;;;;;;5054554;28;20190;-90
2024/03/25 02:30:13;;;;;;;2.67;1.30;;;22.80;59.00;;;;;;5054160;28;20545;-89
2024/03/25 02:32:40;;;;;;;2.53;1.30;;;22.90;59.10;;;;;;5054449;28;20441;-92
2024/03/25 02:35:11;;;;;;;2.17;1.30;;;22.80;59.00;;;;;;5037057;28;20468;-91
2024/03/25 02:37:38;;;;;;;3.07;1.60;;;22.80;59.00;;;;;;5054195;28;20438;-93
2024/03/25 02:40:07;;;;;;;4.40;1.37;;;22.90;59.00;;;;;;5054458;28;20489;-89
2024/03/25 02:42:33;;;;;;;2.53;1.47;;;22.90;58.90;;;;;;5054525;28;20441;-89
2024/03/25 02:45:01;;;;;;;3.23;1.67;;;22.90;59.00;;;;;;5054682;28;20513;-90
2024/03/25 02:47:27;;;;;;;2.10;1.10;;;22.90;59.00;;;;;;5054001;28;20634;-90
2024/03/25 02:49:54;;;;;;;2.13;1.40;;;23.00;59.00;;;;;;5054511;28;20532;-90
2024/03/25 02:52:20;;;;;;;3.47;1.60;;;22.90;58.90;;;;;;5054118;28;20205;-89
2024/03/25 02:54:47;;;;;;;3.90;1.80;;;22.90;58.90;;;;;;5054573;28;20543;-90
2024/03/25 02:57:13;;;;;;;2.77;1.47;;;22.90;58.90;;;;;;5054084;28;20442;-91
2024/03/25 02:59:40;;;;;;;2.50;1.70;;;22.90;58.90;;;;;;5054019;28;20888;-93
2024/03/25 03:02:07;;;;;;;2.63;1.33;;;22.90;58.90;;;;;;5054787;28;20199;-93
2024/03/25 03:04:34;;;;;;;2.40;1.43;;;22.80;58.90;;;;;;5054443;28;20515;-90
2024/03/25 03:07:00;;;;;;;3.20;1.33;;;22.80;58.90;;;;;;5058318;28;20536;-88
2024/03/25 03:09:27;;;;;;;3.20;1.37;;;22.80;58.90;;;;;;5064493;28;20476;-88
2024/03/25 03:11:52;;;;;;;3.10;1.47;;;22.80;58.90;;;;;;5063706;28;20333;-88
2024/03/25 03:14:19;;;;;;;2.67;1.60;;;22.80;58.90;;;;;;5064348;28;20445;-89
2024/03/25 03:16:45;;;;;;;2.10;1.30;;;22.80;58.90;;;;;;5054104;28;20191;-89
2024/03/25 03:19:13;;;;;;;2.27;1.30;;;22.80;58.90;;;;;;5057876;28;20882;-89
2024/03/25 03:21:39;;;;;;;2.23;1.20;;;22.80;58.90;;;;;;5058406;28;20244;-95
2024/03/25 03:24:06;;;;;;;2.90;1.60;;;22.80;58.90;;;;;;5058678;28;20453;-90
2024/03/25 03:26:32;;;;;;;2.67;1.23;;;22.80;58.90;;;;;;5057797;28;20598;-91
2024/03/25 03:28:59;;;;;;;2.10;1.20;;;22.80;58.90;;;;;;5058133;28;20536;-91
2024/03/25 03:31:26;;;;;;;4.80;1.60;;;22.80;58.90;;;;;;5057782;28;20199;-90
2024/03/25 03:33:53;;;;;;;3.80;1.47;;;22.80;58.90;;;;;;5058353;28;20495;-90
2024/03/25 03:36:22;;;;;;;3.13;1.17;;;22.80;58.80;;;;;;5057818;28;20448;-94
2024/03/25 03:38:51;;;;;;;3.00;1.30;;;22.80;58.90;;;;;;5057766;28;20433;-90
2024/03/25 03:41:17;;;;;;;3.63;1.50;;;22.80;58.80;;;;;;5057482;28;20481;-90
2024/03/25 03:43:44;;;;;;;2.47;1.40;;;22.80;58.80;;;;;;5057706;28;20445;-90
2024/03/25 03:46:10;;;;;;;3.47;1.40;;;22.80;58.80;;;;;;5057863;28;20892;-90
2024/03/25 03:48:38;;;;;;;2.57;1.50;;;22.80;58.80;;;;;;5057537;28;20560;-93
2024/03/25 03:51:04;;;;;;;4.40;1.50;;;22.80;58.80;;;;;;5057364;28;20449;-91
2024/03/25 03:53:33;;;;;;;2.67;1.43;;;22.80;58.80;;;;;;5057873;28;20477;-90
2024/03/25 03:56:01;;;;;;;2.63;1.30;;;22.80;58.70;;;;;;5057442;28;20437;-90
2024/03/25 03:58:28;;;;;;;1.97;1.40;;;22.80;58.70;;;;;;5057346;28;20481;-90
2024/03/25 04:00:54;;;;;;;4.00;1.90;;;22.80;58.80;;;;;;5057091;28;20485;-90
2024/03/25 04:03:22;;;;;;;2.10;1.23;;;22.80;58.70;;;;;;5057248;28;20441;-90
2024/03/25 04:05:48;;;;;;;1.90;1.10;;;22.80;58.70;;;;;;5057051;28;20441;-93
2024/03/25 04:08:15;;;;;;;3.57;1.60;;;22.80;58.70;;;;;;5056940;28;20441;-90
2024/03/25 04:10:43;;;;;;;2.43;1.33;;;22.80;58.70;;;;;;5057307;28;20537;-91
2024/03/25 04:13:11;;;;;;;1.90;1.20;;;22.80;58.70;;;;;;5056801;28;20861;-90
2024/03/25 04:15:37;;;;;;;3.17;1.40;;;22.80;58.70;;;;;;5057079;28;20441;-90
2024/03/25 04:18:04;;;;;;;2.90;1.70;;;22.80;58.70;;;;;;5057047;28;20465;-91
2024/03/25 04:20:35;;;;;;;2.73;1.10;;;22.80;58.70;;;;;;5057004;28;20586;-89
2024/03/25 04:23:02;;;;;;;1.73;1.03;;;22.80;58.70;;;;;;5057596;28;20441;-88
2024/03/25 04:25:28;;;;;;;2.80;1.70;;;22.80;58.70;;;;;;5057110;28;20852;-89
2024/03/25 04:27:56;;;;;;;4.13;1.50;;;22.70;58.70;;;;;;5056607;28;20481;-88
2024/03/25 04:30:22;;;;;;;3.47;1.50;;;22.70;59.20;;;;;;5055805;28;20282;-88
2024/03/25 04:32:49;;;;;;;4.43;1.67;;;22.80;58.70;;;;;;5056793;28;20552;-88
2024/03/25 04:35:15;;;;;;;2.53;1.40;;;22.80;58.70;;;;;;5056556;28;20293;-91
